createdAt,value
2018-08-02T00:01:01.834Z,65.3
2018-08-02T00:02:09.050Z,66.1
2018-08-02T00:03:16.267Z,64.7
2018-08-02T00:04:23.482Z,67
2018-08-02T00:05:30.702Z,65.8
2018-08-02T00:06:37.638Z,65.8
2018-08-02T00:07:44.572Z,63.9
2018-08-02T00:08:51.791Z,63.8
2018-08-02T00:09:59.011Z,63.1
2018-08-02T00:11:06.223Z,61.4
2018-08-02T00:12:13.189Z,60.7
2018-08-02T00:13:20.406Z,60
2018-08-02T00:14:27.623Z,59.1
2018-08-02T00:15:34.827Z,58.2
2018-08-02T00:16:42.042Z,58.7
2018-08-02T00:17:49.260Z,56.5
2018-08-02T00:18:56.473Z,60.2
2018-08-02T00:20:03.683Z,57.5
2018-08-02T00:21:10.899Z,58.5
2018-08-02T00:22:17.575Z,54.1
2018-08-02T00:23:24.511Z,56.2
2018-08-02T00:24:31.728Z,57.3
2018-08-02T00:25:38.941Z,54.6
2018-08-02T00:26:46.156Z,58
2018-08-02T00:27:53.369Z,56.1
2018-08-02T00:29:00.628Z,56.3
2018-08-02T00:30:07.554Z,59.2
2018-08-02T00:31:14.769Z,57.4
2018-08-02T00:32:21.996Z,58.8
2018-08-02T00:33:29.216Z,56.7
2018-08-02T00:34:36.425Z,58.5
2018-08-02T00:35:43.365Z,56
2018-08-02T00:36:50.578Z,58.5
2018-08-02T00:37:57.801Z,58.1
2018-08-02T00:39:05.008Z,59.8
2018-08-02T00:40:12.231Z,58.7
2018-08-02T00:41:19.169Z,56.9
2018-08-02T00:42:26.382Z,58.8
2018-08-02T00:43:33.598Z,59.5
2018-08-02T00:44:40.817Z,59.1
2018-08-02T00:45:48.030Z,59.8
2018-08-02T00:46:55.245Z,59.8
2018-08-02T00:48:02.457Z,58.3
2018-08-02T00:49:09.674Z,58.8
2018-08-02T00:50:16.889Z,58.5
2018-08-02T00:51:23.833Z,59.5
2018-08-02T00:52:31.049Z,58.4
2018-08-02T00:53:38.025Z,58.3
2018-08-02T00:54:45.537Z,58.5
2018-08-02T00:55:52.800Z,57.8
2018-08-02T00:57:00.044Z,58.5
2018-08-02T00:58:07.304Z,62.1
2018-08-02T00:59:14.660Z,61.6
2018-08-02T01:00:21.879Z,62.8
2018-08-02T01:01:28.823Z,63.9
2018-08-02T01:02:35.763Z,69.4
2018-08-02T01:03:42.984Z,75
2018-08-02T01:04:50.193Z,73.3
2018-08-02T01:05:57.410Z,78.7
2018-08-02T01:07:04.620Z,80.9
2018-08-02T01:08:11.830Z,83.2
2018-08-02T01:09:19.045Z,84.1
2018-08-02T01:10:26.275Z,85.1
2018-08-02T01:11:33.487Z,88.9
2018-08-02T01:12:40.705Z,86.3
2018-08-02T01:13:47.923Z,87.2
2018-08-02T01:14:55.136Z,88.4
2018-08-02T01:16:02.361Z,90.4
2018-08-02T01:17:09.625Z,91.9
2018-08-02T01:18:16.837Z,99.9
2018-08-02T01:19:24.051Z,99.9
2018-08-02T01:20:30.986Z,99.9
2018-08-02T01:21:38.201Z,99.9
2018-08-02T01:22:45.419Z,99.9
2018-08-02T01:23:52.633Z,99.9
2018-08-02T01:24:59.859Z,99.9
2018-08-02T01:26:07.062Z,99.9
2018-08-02T01:27:14.275Z,99.9
2018-08-02T01:28:21.485Z,99.9
2018-08-02T01:29:28.695Z,99.9
2018-08-02T01:30:35.635Z,99.9
2018-08-02T01:31:42.848Z,99.9
2018-08-02T01:32:50.068Z,99.9
2018-08-02T01:33:57.282Z,99.9
2018-08-02T01:35:04.496Z,99.9
2018-08-02T01:36:11.705Z,99.9
2018-08-02T01:37:18.918Z,99.9
2018-08-02T01:38:26.133Z,99.9
2018-08-02T01:39:33.354Z,99.9
2018-08-02T01:40:40.564Z,99.9
2018-08-02T01:41:47.779Z,99.9
2018-08-02T01:42:54.991Z,99.9
2018-08-02T01:44:02.267Z,99.9
2018-08-02T01:45:09.585Z,99.9
2018-08-02T01:46:16.516Z,99.9
2018-08-02T01:47:23.733Z,99.9
2018-08-02T01:48:30.948Z,99.9
2018-08-02T01:49:37.884Z,99.9
2018-08-02T01:50:45.106Z,99.9
2018-08-02T01:51:52.320Z,99.9
2018-08-02T01:52:59.535Z,99.9
2018-08-02T01:54:06.472Z,99.9
2018-08-02T01:55:13.688Z,99.9
2018-08-02T01:56:20.898Z,99.9
2018-08-02T01:57:28.119Z,99.9
2018-08-02T01:58:35.335Z,99.9
2018-08-02T01:59:42.549Z,99.9
2018-08-02T02:00:49.809Z,99.9
2018-08-02T02:01:56.813Z,99.9
2018-08-02T02:03:04.022Z,99.9
2018-08-02T02:04:11.240Z,99.9
2018-08-02T02:05:18.448Z,99.9
2018-08-02T02:06:25.662Z,99.9
2018-08-02T02:07:32.873Z,99.9
2018-08-02T02:08:40.092Z,99.9
2018-08-02T02:09:47.299Z,99.9
2018-08-02T02:10:54.512Z,99.9
2018-08-02T02:12:01.726Z,99.9
2018-08-02T02:13:08.940Z,99.9
2018-08-02T02:14:16.157Z,99.9
2018-08-02T02:15:23.379Z,99.9
2018-08-02T02:16:30.595Z,99.9
2018-08-02T02:17:37.812Z,99.9
2018-08-02T02:18:45.024Z,99.9
2018-08-02T02:19:52.237Z,99.9
2018-08-02T02:20:59.458Z,99.9
2018-08-02T02:23:13.593Z,99.9
2018-08-02T02:24:20.807Z,99.9
2018-08-02T02:25:28.025Z,99.9
2018-08-02T02:26:35.259Z,99.9
2018-08-02T02:27:42.478Z,99.9
2018-08-02T02:28:49.690Z,99.9
2018-08-02T02:29:56.902Z,99.9
2018-08-02T02:31:04.115Z,99.9
2018-08-02T02:32:11.339Z,99.9
2018-08-02T02:33:18.543Z,99.9
2018-08-02T02:34:25.759Z,99.9
2018-08-02T02:35:32.972Z,99.9
2018-08-02T02:36:40.189Z,99.9
2018-08-02T02:37:47.401Z,99.9
2018-08-02T02:38:54.615Z,99.9
2018-08-02T02:40:01.828Z,99.9
2018-08-02T02:41:09.039Z,99.9
2018-08-02T02:42:15.981Z,99.9
2018-08-02T02:43:23.190Z,99.9
2018-08-02T02:44:30.404Z,99.9
2018-08-02T02:45:37.345Z,99.9
2018-08-02T02:46:44.561Z,99.9
2018-08-02T02:47:51.774Z,99.9
2018-08-02T02:48:58.985Z,99.9
2018-08-02T02:50:06.198Z,99.9
2018-08-02T02:51:13.412Z,99.9
2018-08-02T02:52:20.627Z,99.9
2018-08-02T02:53:27.858Z,99.9
2018-08-02T02:54:35.072Z,99.9
2018-08-02T02:55:42.286Z,99.9
2018-08-02T02:56:49.500Z,99.9
2018-08-02T02:57:56.716Z,99.9
2018-08-02T02:59:03.930Z,99.9
2018-08-02T03:00:11.143Z,99.9
2018-08-02T03:01:18.358Z,99.9
2018-08-02T03:02:25.571Z,99.9
2018-08-02T03:03:32.790Z,99.9
2018-08-02T03:04:39.996Z,99.9
2018-08-02T03:05:47.213Z,99.9
2018-08-02T03:06:54.421Z,99.9
2018-08-02T03:08:01.639Z,99.9
2018-08-02T03:09:08.854Z,99.9
2018-08-02T03:10:16.071Z,99.9
2018-08-02T03:11:23.286Z,99.9
2018-08-02T03:12:30.492Z,99.9
2018-08-02T03:13:37.700Z,99.9
2018-08-02T03:14:44.912Z,99.9
2018-08-02T03:15:52.134Z,99.9
2018-08-02T03:16:59.349Z,99.9
2018-08-02T03:19:13.473Z,99.9
2018-08-02T03:20:20.699Z,99.9
2018-08-02T03:21:27.934Z,99.9
2018-08-02T03:22:35.144Z,99.9
2018-08-02T03:23:42.364Z,99.9
2018-08-02T03:24:49.578Z,99.9
2018-08-02T03:25:56.793Z,99.9
2018-08-02T03:27:04.011Z,99.9
2018-08-02T03:28:11.231Z,99.9
2018-08-02T03:29:18.444Z,99.9
2018-08-02T03:30:25.659Z,99.9
2018-08-02T03:31:32.876Z,99.9
2018-08-02T03:32:40.087Z,99.9
2018-08-02T03:33:47.298Z,99.9
2018-08-02T03:34:54.515Z,99.9
2018-08-02T03:36:01.726Z,99.9
2018-08-02T03:37:08.941Z,99.9
2018-08-02T03:38:16.180Z,99.9
2018-08-02T03:39:23.394Z,99.9
2018-08-02T03:40:30.633Z,99.9
2018-08-02T03:41:37.572Z,99.9
2018-08-02T03:42:44.789Z,99.9
2018-08-02T03:43:52.003Z,99.9
2018-08-02T03:44:59.217Z,99.9
2018-08-02T03:46:06.436Z,99.9
2018-08-02T03:47:13.652Z,99.9
2018-08-02T03:48:20.868Z,99.9
2018-08-02T03:49:28.077Z,99.9
2018-08-02T03:50:35.288Z,99.9
2018-08-02T03:51:42.504Z,99.9
2018-08-02T03:52:49.712Z,99.9
2018-08-02T03:53:56.941Z,99.9
2018-08-02T03:55:04.176Z,99.9
2018-08-02T03:56:11.390Z,99.9
2018-08-02T03:57:18.604Z,99.9
2018-08-02T03:58:25.816Z,99.9
2018-08-02T03:59:33.026Z,99.9
2018-08-02T04:00:39.688Z,99.9
2018-08-02T04:01:46.646Z,99.9
2018-08-02T04:02:53.588Z,99.9
2018-08-02T04:04:00.807Z,99.9
2018-08-02T04:05:08.022Z,99.9
2018-08-02T04:06:15.236Z,99.9
2018-08-02T04:07:22.454Z,99.9
2018-08-02T04:08:29.665Z,99.9
2018-08-02T04:09:36.880Z,99.9
2018-08-02T04:10:44.091Z,99.9
2018-08-02T04:11:51.302Z,99.9
2018-08-02T04:12:58.523Z,99.9
2018-08-02T04:14:05.735Z,99.9
2018-08-02T04:15:12.950Z,99.9
2018-08-02T04:16:19.890Z,99.9
2018-08-02T04:17:27.105Z,99.9
2018-08-02T04:18:34.324Z,99.9
2018-08-02T04:19:41.266Z,99.9
2018-08-02T04:20:48.480Z,99.9
2018-08-02T04:21:56.714Z,99.9
2018-08-02T04:23:03.925Z,99.9
2018-08-02T04:24:11.136Z,99.9
2018-08-02T04:25:18.352Z,99.9
2018-08-02T04:26:25.563Z,99.9
2018-08-02T04:27:32.783Z,99.9
2018-08-02T04:28:39.997Z,99.9
2018-08-02T04:29:46.941Z,99.9
2018-08-02T04:30:54.156Z,99.9
2018-08-02T04:32:01.099Z,99.9
2018-08-02T04:33:08.306Z,99.9
2018-08-02T04:34:15.242Z,99.9
2018-08-02T04:35:22.186Z,99.9
2018-08-02T04:36:29.397Z,99.9
2018-08-02T04:37:36.615Z,99.9
2018-08-02T04:38:43.829Z,99.9
2018-08-02T04:39:50.771Z,99.9
2018-08-02T04:40:57.986Z,99.9
2018-08-02T04:42:05.234Z,99.9
2018-08-02T04:43:12.501Z,99.9
2018-08-02T04:44:19.475Z,99.9
2018-08-02T04:45:26.682Z,99.9
2018-08-02T04:46:33.896Z,99.9
2018-08-02T04:47:41.120Z,99.9
2018-08-02T04:48:48.333Z,99.9
2018-08-02T04:49:55.551Z,99.9
2018-08-02T04:51:02.764Z,99.9
2018-08-02T04:52:10.007Z,99.9
2018-08-02T04:53:17.228Z,99.9
2018-08-02T04:54:24.444Z,99.9
2018-08-02T04:55:31.661Z,99.9
2018-08-02T04:56:38.886Z,99.9
2018-08-02T04:57:46.103Z,99.9
2018-08-02T04:58:53.317Z,99.9
2018-08-02T05:00:00.249Z,99.9
2018-08-02T05:01:07.476Z,99.9
2018-08-02T05:02:14.707Z,99.9
2018-08-02T05:03:21.922Z,99.9
2018-08-02T05:04:29.135Z,99.9
2018-08-02T05:05:36.071Z,99.9
2018-08-02T05:06:43.288Z,99.9
2018-08-02T05:07:50.504Z,99.9
2018-08-02T05:08:57.718Z,99.9
2018-08-02T05:10:04.937Z,99.9
2018-08-02T05:11:11.875Z,99.9
2018-08-02T05:12:19.087Z,99.9
2018-08-02T05:13:26.310Z,99.9
2018-08-02T05:14:33.736Z,99.9
2018-08-02T05:15:40.950Z,99.9
2018-08-02T05:16:48.169Z,99.9
2018-08-02T05:17:55.394Z,99.9
2018-08-02T05:19:02.610Z,99.9
2018-08-02T05:20:09.820Z,99.9
2018-08-02T05:21:17.038Z,99.9
2018-08-02T05:22:24.019Z,99.9
2018-08-02T05:23:31.601Z,99.9
2018-08-02T05:24:38.819Z,99.9
2018-08-02T05:25:46.030Z,99.9
2018-08-02T05:26:53.245Z,99.9
2018-08-02T05:28:00.460Z,99.9
2018-08-02T05:29:07.669Z,99.9
2018-08-02T05:30:14.883Z,99.9
2018-08-02T05:31:22.093Z,99.9
2018-08-02T05:32:29.309Z,99.9
2018-08-02T05:33:36.614Z,99.9
2018-08-02T05:34:44.030Z,99.9
2018-08-02T05:35:51.745Z,99.9
2018-08-02T05:37:01.013Z,99.9
2018-08-02T05:38:10.903Z,99.9
2018-08-02T05:39:18.111Z,99.9
2018-08-02T05:40:25.336Z,99.9
2018-08-02T05:41:32.277Z,99.9
2018-08-02T05:42:39.494Z,99.9
2018-08-02T05:43:46.705Z,99.9
2018-08-02T05:44:53.919Z,99.9
2018-08-02T05:46:01.133Z,99.9
2018-08-02T05:47:08.349Z,99.9
2018-08-02T05:48:15.561Z,99.9
2018-08-02T05:49:22.775Z,99.9
2018-08-02T05:50:29.987Z,99.9
2018-08-02T05:51:37.296Z,99.9
2018-08-02T05:52:44.760Z,99.9
2018-08-02T05:53:51.971Z,99.9
2018-08-02T05:54:58.907Z,99.9
2018-08-02T05:56:05.849Z,99.9
2018-08-02T05:57:13.062Z,99.9
2018-08-02T05:58:20.290Z,99.9
2018-08-02T05:59:27.226Z,99.9
2018-08-02T06:00:34.439Z,99.9
2018-08-02T06:01:41.652Z,99.9
2018-08-02T06:02:48.875Z,99.9
2018-08-02T06:03:56.100Z,99.9
2018-08-02T06:05:03.319Z,99.9
2018-08-02T06:06:10.530Z,99.9
2018-08-02T06:07:17.746Z,99.9
2018-08-02T06:08:24.684Z,99.9
2018-08-02T06:09:31.902Z,99.9
2018-08-02T06:10:39.114Z,99.9
2018-08-02T06:11:46.331Z,99.9
2018-08-02T06:12:53.543Z,99.9
2018-08-02T06:14:00.756Z,99.9
2018-08-02T06:15:07.969Z,99.9
2018-08-02T06:16:14.903Z,99.9
2018-08-02T06:17:22.118Z,99.9
2018-08-02T06:18:29.332Z,99.9
2018-08-02T06:19:36.554Z,99.9
2018-08-02T06:20:43.775Z,99.9
2018-08-02T06:21:50.994Z,99.9
2018-08-02T06:22:58.211Z,99.9
2018-08-02T06:24:05.464Z,99.9
2018-08-02T06:25:12.796Z,99.9
2018-08-02T06:26:20.013Z,99.9
2018-08-02T06:27:27.230Z,99.9
2018-08-02T06:28:34.437Z,99.9
2018-08-02T06:29:41.651Z,99.9
2018-08-02T06:30:48.867Z,99.9
2018-08-02T06:31:56.085Z,99.9
2018-08-02T06:33:03.297Z,99.9
2018-08-02T06:34:10.512Z,99.9
2018-08-02T06:35:17.731Z,99.9
2018-08-02T06:36:24.671Z,99.9
2018-08-02T06:37:31.887Z,99.9
2018-08-02T06:38:39.104Z,99.9
2018-08-02T06:39:46.319Z,99.9
2018-08-02T06:40:53.538Z,99.9
2018-08-02T06:42:00.758Z,99.9
2018-08-02T06:43:07.976Z,99.9
2018-08-02T06:44:15.192Z,99.9
2018-08-02T06:45:22.134Z,99.9
2018-08-02T06:46:29.353Z,99.9
2018-08-02T06:47:36.567Z,99.9
2018-08-02T06:48:43.782Z,99.9
2018-08-02T06:49:50.995Z,99.9
2018-08-02T06:50:58.212Z,99.9
2018-08-02T06:52:05.436Z,99.9
2018-08-02T06:53:12.648Z,99.9
2018-08-02T06:54:19.864Z,99.9
2018-08-02T06:55:27.077Z,99.9
2018-08-02T06:56:34.012Z,99.9
2018-08-02T06:57:40.955Z,99.9
2018-08-02T06:58:47.898Z,99.9
2018-08-02T06:59:55.111Z,99.9
2018-08-02T07:01:02.334Z,99.9
2018-08-02T07:02:09.545Z,99.9
2018-08-02T07:03:16.760Z,99.9
2018-08-02T07:04:23.975Z,99.9
2018-08-02T07:05:31.190Z,99.9
2018-08-02T07:06:38.403Z,99.9
2018-08-02T07:07:45.615Z,99.9
2018-08-02T07:08:52.832Z,99.9
2018-08-02T07:09:59.772Z,99.9
2018-08-02T07:11:06.988Z,99.9
2018-08-02T07:12:14.235Z,99.9
2018-08-02T07:13:21.563Z,99.9
2018-08-02T07:14:28.783Z,99.9
2018-08-02T07:15:35.999Z,99.9
2018-08-02T07:16:43.216Z,99.9
2018-08-02T07:17:50.433Z,99.9
2018-08-02T07:18:57.651Z,99.9
2018-08-02T07:20:04.860Z,99.9
2018-08-02T07:21:12.079Z,99.9
2018-08-02T07:22:19.291Z,99.9
2018-08-02T07:23:26.503Z,99.9
2018-08-02T07:24:33.725Z,99.9
2018-08-02T07:25:40.939Z,99.9
2018-08-02T07:26:48.154Z,99.9
2018-08-02T07:27:55.368Z,99.9
2018-08-02T07:29:02.581Z,99.9
2018-08-02T07:30:09.529Z,99.9
2018-08-02T07:31:16.752Z,99.9
2018-08-02T07:32:23.971Z,99.9
2018-08-02T07:33:31.203Z,99.9
2018-08-02T07:34:38.643Z,99.9
2018-08-02T07:35:45.855Z,99.9
2018-08-02T07:36:53.069Z,99.9
2018-08-02T07:38:00.284Z,99.9
2018-08-02T07:39:07.499Z,99.9
2018-08-02T07:40:14.711Z,99.9
2018-08-02T07:41:21.927Z,99.9
2018-08-02T07:42:29.144Z,99.9
2018-08-02T07:43:36.359Z,99.9
2018-08-02T07:44:43.573Z,99.9
2018-08-02T07:45:50.792Z,99.9
2018-08-02T07:46:58.008Z,99.9
2018-08-02T07:48:05.225Z,99.9
2018-08-02T07:49:12.441Z,99.9
2018-08-02T07:50:19.668Z,99.9
2018-08-02T07:51:26.881Z,99.9
2018-08-02T07:52:34.094Z,99.9
2018-08-02T07:53:41.317Z,99.9
2018-08-02T07:54:48.250Z,99.9
2018-08-02T07:55:55.480Z,99.9
2018-08-02T07:57:02.687Z,99.9
2018-08-02T07:58:09.898Z,99.9
2018-08-02T07:59:17.115Z,99.9
2018-08-02T08:00:24.330Z,99.9
2018-08-02T08:01:31.555Z,99.9
2018-08-02T08:02:38.769Z,99.9
2018-08-02T08:03:45.986Z,99.9
2018-08-02T08:04:53.204Z,99.9
2018-08-02T08:06:00.420Z,99.9
2018-08-02T08:07:07.637Z,99.9
2018-08-02T08:08:14.581Z,99.9
2018-08-02T08:09:21.873Z,99.9
2018-08-02T08:10:29.078Z,99.9
2018-08-02T08:11:36.295Z,99.9
2018-08-02T08:12:43.235Z,99.9
2018-08-02T08:13:50.451Z,99.9
2018-08-02T08:14:57.667Z,99.9
2018-08-02T08:16:04.973Z,99.9
2018-08-02T08:17:12.931Z,99.9
2018-08-02T08:18:20.163Z,99.9
2018-08-02T08:19:27.384Z,99.9
2018-08-02T08:20:34.609Z,99.9
2018-08-02T08:21:41.851Z,99.9
2018-08-02T08:22:49.335Z,99.9
2018-08-02T08:23:56.572Z,99.9
2018-08-02T08:25:03.784Z,99.9
2018-08-02T08:26:10.728Z,99.9
2018-08-02T08:27:17.942Z,99.9
2018-08-02T08:28:25.191Z,99.9
2018-08-02T08:29:32.553Z,99.9
2018-08-02T08:30:40.054Z,99.9
2018-08-02T08:31:46.714Z,99.9
2018-08-02T08:32:53.667Z,99.9
2018-08-02T08:34:00.588Z,99.9
2018-08-02T08:35:07.821Z,99.9
2018-08-02T08:36:15.184Z,99.9
2018-08-02T08:37:24.653Z,99.9
2018-08-02T08:38:32.071Z,99.9
2018-08-02T08:39:39.283Z,99.9
2018-08-02T08:40:46.507Z,99.9
2018-08-02T08:41:53.725Z,99.9
2018-08-02T08:43:00.938Z,99.9
2018-08-02T08:44:08.155Z,99.9
2018-08-02T08:45:15.373Z,99.9
2018-08-02T08:46:22.315Z,99.9
2018-08-02T08:47:29.533Z,99.9
2018-08-02T08:48:36.749Z,99.9
2018-08-02T08:49:43.962Z,99.9
2018-08-02T08:50:51.229Z,99.9
2018-08-02T08:51:58.557Z,99.9
2018-08-02T08:53:05.771Z,99.9
2018-08-02T08:54:12.988Z,99.9
2018-08-02T08:55:20.200Z,99.9
2018-08-02T08:56:27.451Z,99.9
2018-08-02T08:57:34.755Z,99.9
2018-08-02T08:58:41.968Z,99.9
2018-08-02T08:59:48.908Z,99.9
2018-08-02T09:00:56.159Z,99.9
2018-08-02T09:02:03.374Z,99.9
2018-08-02T09:03:10.629Z,99.9
2018-08-02T09:04:18.149Z,99.9
2018-08-02T09:05:25.368Z,99.9
2018-08-02T09:06:32.587Z,99.9
2018-08-02T09:07:39.801Z,99.9
2018-08-02T09:08:47.021Z,99.9
2018-08-02T09:09:54.237Z,99.9
2018-08-02T09:11:01.454Z,99.9
2018-08-02T09:12:08.670Z,99.9
2018-08-02T09:13:15.916Z,99.9
2018-08-02T09:14:23.133Z,99.9
2018-08-02T09:15:30.351Z,99.9
2018-08-02T09:16:37.566Z,99.9
2018-08-02T09:17:44.782Z,99.9
2018-08-02T09:18:52.004Z,99.9
2018-08-02T09:19:59.228Z,99.9
2018-08-02T09:21:06.449Z,99.9
2018-08-02T09:22:13.674Z,99.9
2018-08-02T09:23:20.615Z,99.9
2018-08-02T09:24:27.873Z,99.9
2018-08-02T09:25:35.092Z,99.9
2018-08-02T09:26:42.361Z,99.9
2018-08-02T09:29:11.393Z,99.9
2018-08-02T09:30:18.609Z,99.9
2018-08-02T09:31:25.828Z,99.9
2018-08-02T09:32:33.128Z,99.9
2018-08-02T09:33:40.939Z,99.9
2018-08-02T09:34:48.160Z,99.9
2018-08-02T09:35:55.378Z,99.9
2018-08-02T09:37:02.597Z,99.9
2018-08-02T09:38:09.810Z,99.9
2018-08-02T09:39:17.028Z,99.9
2018-08-02T09:40:24.010Z,99.9
2018-08-02T09:41:30.961Z,99.9
2018-08-02T09:42:38.176Z,99.9
2018-08-02T09:43:45.393Z,99.9
2018-08-02T09:44:52.609Z,99.9
2018-08-02T09:45:59.826Z,99.9
2018-08-02T09:47:07.060Z,99.9
2018-08-02T09:48:14.505Z,99.9
2018-08-02T09:49:21.721Z,99.9
2018-08-02T09:50:28.935Z,99.9
2018-08-02T09:51:36.149Z,99.9
2018-08-02T09:52:43.375Z,99.9
2018-08-02T09:53:50.595Z,99
2018-08-02T09:54:57.975Z,99.9
2018-08-02T09:56:05.190Z,99.9
2018-08-02T09:57:12.409Z,99.9
2018-08-02T09:58:19.624Z,99.9
2018-08-02T09:59:26.838Z,99.9
2018-08-02T10:00:34.057Z,98.9
2018-08-02T10:01:41.294Z,96.2
2018-08-02T10:02:48.509Z,87.1
2018-08-02T10:03:55.448Z,85.4
2018-08-02T10:05:02.668Z,84.1
2018-08-02T10:06:09.611Z,89.2
2018-08-02T10:08:38.438Z,90
2018-08-02T10:09:45.654Z,77.3
2018-08-02T10:10:52.876Z,74.3
2018-08-02T10:11:59.819Z,84.6
2018-08-02T10:13:07.043Z,93.4
2018-08-02T10:14:14.260Z,86.8
2018-08-02T10:15:21.482Z,67.3
2018-08-02T10:16:28.700Z,76.4
2018-08-02T10:17:35.916Z,70.7
2018-08-02T10:18:43.143Z,73.6
2018-08-02T10:19:50.361Z,70.9
2018-08-02T10:20:57.580Z,71.5
2018-08-02T10:22:04.804Z,71.8
2018-08-02T10:23:11.745Z,66.8
2018-08-02T10:24:18.692Z,59.9
2018-08-02T10:25:25.918Z,62.7
2018-08-02T10:26:33.135Z,63.4
2018-08-02T10:27:40.354Z,60.6
2018-08-02T10:28:47.571Z,56.9
2018-08-02T10:29:54.786Z,53.8
2018-08-02T10:31:01.738Z,48.7
2018-08-02T10:32:09.155Z,60.7
2018-08-02T10:33:16.378Z,52.5
2018-08-02T10:34:23.604Z,40.5
2018-08-02T10:35:30.846Z,47.9
2018-08-02T10:36:38.049Z,44.6
2018-08-02T10:37:45.309Z,50.3
2018-08-02T10:38:52.653Z,46.4
2018-08-02T10:39:59.878Z,52.2
2018-08-02T10:41:07.096Z,54
2018-08-02T10:42:14.313Z,49.3
2018-08-02T10:43:21.544Z,42.2
2018-08-02T10:44:28.767Z,40.5
2018-08-02T10:45:36.058Z,41.2
2018-08-02T10:46:42.727Z,34.1
2018-08-02T10:47:49.945Z,32.7
2018-08-02T10:48:56.894Z,39.4
2018-08-02T10:50:04.143Z,36.8
2018-08-02T10:51:11.362Z,36.4
2018-08-02T10:52:18.590Z,38.3
2018-08-02T10:53:25.812Z,38.2
2018-08-02T10:54:33.032Z,35
2018-08-02T10:55:40.265Z,34.6
2018-08-02T10:56:47.222Z,32.6
2018-08-02T10:57:54.169Z,35.4
2018-08-02T10:59:01.384Z,32.5
2018-08-02T11:00:08.599Z,30.9
2018-08-02T11:01:15.866Z,35.6
2018-08-02T11:02:22.881Z,39.9
2018-08-02T11:03:30.097Z,30.9
2018-08-02T11:04:37.042Z,32.1
2018-08-02T11:05:44.267Z,31
2018-08-02T11:06:51.503Z,37.1
2018-08-02T11:07:58.832Z,35.3
2018-08-02T11:09:06.057Z,37.8
2018-08-02T11:10:13.279Z,31.2
2018-08-02T11:11:20.515Z,25.1
2018-08-02T11:12:27.775Z,25.7
2018-08-02T11:13:35.029Z,26.9
2018-08-02T11:14:42.256Z,25.3
2018-08-02T11:15:49.473Z,22.8
2018-08-02T11:16:56.698Z,26.3
2018-08-02T11:18:03.924Z,26.4
2018-08-02T11:19:10.305Z,23.2
2018-08-02T11:20:17.530Z,23
2018-08-02T11:21:24.752Z,27.1
2018-08-02T11:22:31.972Z,26.9
2018-08-02T11:23:38.921Z,30.5
2018-08-02T11:24:46.161Z,26
2018-08-02T11:25:53.389Z,29.9
2018-08-02T11:27:00.617Z,23.1
2018-08-02T11:28:07.832Z,28.6
2018-08-02T11:29:15.057Z,20.3
2018-08-02T11:30:22.272Z,27
2018-08-02T11:31:29.493Z,28.2
2018-08-02T11:32:36.446Z,29.1
2018-08-02T11:33:43.893Z,27.6
2018-08-02T11:34:51.233Z,22.3
2018-08-02T11:35:58.451Z,22.7
2018-08-02T11:37:05.682Z,22
2018-08-02T11:38:12.899Z,26.1
2018-08-02T11:39:20.125Z,24.3
2018-08-02T11:40:27.345Z,22.1
2018-08-02T11:41:34.572Z,29.3
2018-08-02T11:42:41.794Z,24.4
2018-08-02T11:43:49.027Z,23.4
2018-08-02T11:44:56.349Z,24.6
2018-08-02T11:46:03.575Z,23.9
2018-08-02T11:47:10.548Z,19.6
2018-08-02T11:48:17.766Z,16
2018-08-02T11:49:24.993Z,21.9
2018-08-02T11:50:32.211Z,24.5
2018-08-02T11:51:39.164Z,23.6
2018-08-02T11:52:46.384Z,24
2018-08-02T11:53:53.601Z,16.7
2018-08-02T11:55:00.826Z,20.8
2018-08-02T11:56:08.070Z,15.7
2018-08-02T11:57:15.427Z,15.5
2018-08-02T11:58:23.179Z,17.4
2018-08-02T11:59:30.401Z,17.2
2018-08-02T12:00:37.620Z,12.5
2018-08-02T12:01:44.861Z,15
2018-08-02T12:02:52.199Z,13.9
2018-08-02T12:03:59.423Z,13.9
2018-08-02T12:05:06.652Z,15.6
2018-08-02T12:06:13.870Z,17.9
2018-08-02T12:07:21.090Z,15.1
2018-08-02T12:08:28.330Z,20.3
2018-08-02T12:09:35.558Z,15.8
2018-08-02T12:10:42.781Z,19.3
2018-08-02T12:11:50.023Z,15.7
2018-08-02T12:12:57.289Z,13.1
2018-08-02T12:14:04.499Z,14.5
2018-08-02T12:15:11.731Z,17.4
2018-08-02T12:16:19.047Z,15.6
2018-08-02T12:17:26.519Z,21.7
2018-08-02T12:18:33.819Z,14.2
2018-08-02T12:19:41.304Z,18.2
2018-08-02T12:20:48.764Z,15.7
2018-08-02T12:21:55.763Z,13.5
2018-08-02T12:23:03.200Z,12
2018-08-02T12:24:10.489Z,13.6
2018-08-02T12:25:18.194Z,12.8
2018-08-02T12:26:25.479Z,13.4
2018-08-02T12:27:32.710Z,13.8
2018-08-02T12:28:39.938Z,16.9
2018-08-02T12:29:47.171Z,15.2
2018-08-02T12:30:54.464Z,13.9
2018-08-02T12:32:02.107Z,14.4
2018-08-02T12:33:09.079Z,17.9
2018-08-02T12:34:16.321Z,20.6
2018-08-02T12:35:23.546Z,11.7
2018-08-02T12:36:30.506Z,17.8
2018-08-02T12:37:37.186Z,14
2018-08-02T12:38:44.411Z,14.7
2018-08-02T12:39:51.370Z,11.3
2018-08-02T12:40:58.326Z,9
2018-08-02T12:42:05.547Z,12.9
2018-08-02T12:43:12.765Z,11.6
2018-08-02T12:44:19.989Z,14.4
2018-08-02T12:45:27.215Z,11.3
2018-08-02T12:46:34.448Z,9.2
2018-08-02T12:47:41.675Z,10.5
2018-08-02T12:48:48.938Z,6.8
2018-08-02T12:49:56.178Z,11.4
2018-08-02T12:51:03.144Z,15.6
2018-08-02T12:52:10.368Z,6.7
2018-08-02T12:53:17.592Z,11.5
2018-08-02T12:54:24.898Z,18.9
2018-08-02T12:55:32.590Z,13.4
2018-08-02T12:56:39.875Z,12.9
2018-08-02T12:57:47.172Z,10
2018-08-02T12:58:54.530Z,7.1
2018-08-02T13:00:01.761Z,9.4
2018-08-02T13:01:08.981Z,9.7
2018-08-02T13:02:15.926Z,8
2018-08-02T13:03:23.174Z,6
2018-08-02T13:04:30.487Z,4.9
2018-08-02T13:05:37.705Z,13.2
2018-08-02T13:06:44.931Z,9.1
2018-08-02T13:07:52.150Z,14
2018-08-02T13:08:59.421Z,7.5
2018-08-02T13:10:06.817Z,6.1
2018-08-02T13:11:14.042Z,9.1
2018-08-02T13:12:21.270Z,9.4
2018-08-02T13:13:28.497Z,7.9
2018-08-02T13:14:35.754Z,8.6
2018-08-02T13:15:43.178Z,5.6
2018-08-02T13:16:50.568Z,5
2018-08-02T13:17:57.793Z,4
2018-08-02T13:19:04.733Z,4.9
2018-08-02T13:20:11.960Z,6.4
2018-08-02T13:21:19.184Z,5.7
2018-08-02T13:22:26.426Z,4.2
2018-08-02T13:23:33.839Z,6.6
2018-08-02T13:24:41.215Z,4.4
2018-08-02T13:25:48.940Z,8.6
2018-08-02T13:26:56.164Z,6.6
2018-08-02T13:28:03.444Z,3.1
2018-08-02T13:29:10.472Z,1
2018-08-02T13:30:17.697Z,3.4
2018-08-02T13:31:24.967Z,6.6
2018-08-02T13:32:32.184Z,1
2018-08-02T13:33:39.139Z,6.7
2018-08-02T13:34:46.367Z,6.5
2018-08-02T13:37:15.384Z,2.5
2018-08-02T13:38:22.580Z,1
2018-08-02T13:39:29.541Z,1.6
2018-08-02T13:40:36.494Z,1
2018-08-02T13:41:43.713Z,7
2018-08-02T13:42:51.002Z,9.5
2018-08-02T13:43:58.537Z,2
2018-08-02T13:45:05.756Z,3
2018-08-02T13:46:12.992Z,1
2018-08-02T13:47:20.210Z,1
2018-08-02T13:48:27.457Z,1
2018-08-02T13:49:34.679Z,1.8
2018-08-02T13:50:41.907Z,9.8
2018-08-02T13:51:49.132Z,6.8
2018-08-02T13:52:56.353Z,3.3
2018-08-02T13:54:03.576Z,5.3
2018-08-02T13:55:10.530Z,4.7
2018-08-02T13:56:17.765Z,2.5
2018-08-02T13:57:24.985Z,2.9
2018-08-02T13:58:32.214Z,1
2018-08-02T13:59:39.453Z,3
2018-08-02T14:00:46.732Z,1.5
2018-08-02T14:01:54.075Z,1
2018-08-02T14:03:01.301Z,2.6
2018-08-02T14:04:08.527Z,1
2018-08-02T14:05:15.751Z,1
2018-08-02T14:06:23.024Z,1
2018-08-02T14:07:30.337Z,1
2018-08-02T14:08:37.562Z,1
2018-08-02T14:09:44.789Z,3.9
2018-08-02T14:10:52.043Z,1.6
2018-08-02T14:11:59.267Z,4
2018-08-02T14:13:06.222Z,6.3
2018-08-02T14:14:13.443Z,2.1
2018-08-02T14:15:20.673Z,3.8
2018-08-02T14:16:27.905Z,1.4
2018-08-02T14:17:35.219Z,2.2
2018-08-02T14:18:43.028Z,5.3
2018-08-02T14:19:49.971Z,4.9
2018-08-02T14:20:57.198Z,1.7
2018-08-02T14:22:04.448Z,4.2
2018-08-02T14:23:11.763Z,3.7
2018-08-02T14:24:18.986Z,4.8
2018-08-02T14:25:26.212Z,1.5
2018-08-02T14:26:33.166Z,2.8
2018-08-02T14:27:40.388Z,1
2018-08-02T14:28:47.668Z,1.1
2018-08-02T14:29:55.189Z,1
2018-08-02T14:31:02.128Z,1
2018-08-02T14:32:09.358Z,1
2018-08-02T14:33:16.580Z,1
2018-08-02T14:34:23.803Z,1.2
2018-08-02T14:35:30.758Z,1
2018-08-02T14:36:37.978Z,1
2018-08-02T14:37:45.203Z,1
2018-08-02T14:38:52.427Z,1
2018-08-02T14:39:59.648Z,1
2018-08-02T14:41:06.869Z,1
2018-08-02T14:42:14.093Z,3.4
2018-08-02T14:43:21.332Z,5.1
2018-08-02T14:44:28.548Z,2.4
2018-08-02T14:45:35.768Z,2.5
2018-08-02T14:46:42.990Z,1
2018-08-02T14:47:50.217Z,1
2018-08-02T14:48:57.183Z,1
2018-08-02T14:50:04.418Z,1
2018-08-02T14:51:11.368Z,1
2018-08-02T14:52:18.596Z,1
2018-08-02T14:53:25.820Z,1
2018-08-02T14:54:33.125Z,1
2018-08-02T14:55:40.355Z,1
2018-08-02T14:56:47.580Z,1
2018-08-02T14:57:54.802Z,1
2018-08-02T14:59:02.027Z,1
2018-08-02T15:00:09.252Z,1.8
2018-08-02T15:01:16.197Z,2.4
2018-08-02T15:02:23.145Z,1
2018-08-02T15:03:30.372Z,1
2018-08-02T15:04:37.604Z,1
2018-08-02T15:05:44.818Z,1
2018-08-02T15:06:52.118Z,1
2018-08-02T15:07:59.042Z,1
2018-08-02T15:09:05.996Z,1
2018-08-02T15:10:13.219Z,1
2018-08-02T15:11:20.444Z,1